createdAt,value
2017-02-14T00:00:21.667Z,5.06
2017-02-14T00:00:43.397Z,5.04
2017-02-14T00:01:05.094Z,4.99
2017-02-14T00:01:31.577Z,5.02
2017-02-14T00:01:53.280Z,5.00
2017-02-14T00:02:14.994Z,4.99
2017-02-14T00:02:41.488Z,5.00
2017-02-14T00:03:03.233Z,5.03
2017-02-14T00:03:29.682Z,5.03
2017-02-14T00:03:51.390Z,4.99
2017-02-14T00:04:17.867Z,4.94
2017-02-14T00:04:39.582Z,4.89
2017-02-14T00:05:06.066Z,4.89
2017-02-14T00:05:27.779Z,4.92
2017-02-14T00:05:54.258Z,4.91
2017-02-14T00:06:15.968Z,4.91
2017-02-14T00:06:37.678Z,4.94
2017-02-14T00:06:59.395Z,4.93
2017-02-14T00:07:25.868Z,4.92
2017-02-14T00:07:47.573Z,4.89
2017-02-14T00:08:14.058Z,4.96
2017-02-14T00:08:35.766Z,4.96
2017-02-14T00:09:02.261Z,4.95
2017-02-14T00:09:24.057Z,4.94
2017-02-14T00:09:50.540Z,4.94
2017-02-14T00:10:12.343Z,4.95
2017-02-14T00:10:34.064Z,4.95
2017-02-14T00:11:00.550Z,4.91
2017-02-14T00:11:22.255Z,4.87
2017-02-14T00:11:43.990Z,4.86
2017-02-14T00:12:15.238Z,4.85
2017-02-14T00:12:36.965Z,4.85
2017-02-14T00:13:03.449Z,4.88
2017-02-14T00:13:27.731Z,4.89
2017-02-14T00:13:54.265Z,4.91
2017-02-14T00:14:15.975Z,4.87
2017-02-14T00:14:40.092Z,4.88
2017-02-14T00:15:01.797Z,4.87
2017-02-14T00:15:28.376Z,4.91
2017-02-14T00:15:50.089Z,4.91
2017-02-14T00:16:11.931Z,4.92
2017-02-14T00:16:38.425Z,4.88
2017-02-14T00:17:00.239Z,4.84
2017-02-14T00:17:21.957Z,4.84
2017-02-14T00:17:48.570Z,4.79
2017-02-14T00:18:10.285Z,4.77
2017-02-14T00:18:41.540Z,4.80
2017-02-14T00:19:03.247Z,4.83
2017-02-14T00:19:34.495Z,4.78
2017-02-14T00:19:56.205Z,4.84
2017-02-14T00:20:22.691Z,4.89
2017-02-14T00:20:44.402Z,4.86
2017-02-14T00:21:15.661Z,4.87
2017-02-14T00:21:37.497Z,4.89
2017-02-14T00:21:59.203Z,4.88
2017-02-14T00:22:30.457Z,4.87
2017-02-14T00:22:52.169Z,4.84
2017-02-14T00:23:13.970Z,4.78
2017-02-14T00:23:35.682Z,4.84
2017-02-14T00:23:57.384Z,4.86
2017-02-14T00:24:28.733Z,4.87
2017-02-14T00:24:50.527Z,4.85
2017-02-14T00:25:21.786Z,4.83
2017-02-14T00:25:43.487Z,4.79
2017-02-14T00:26:05.190Z,4.83
2017-02-14T00:26:31.676Z,4.80
2017-02-14T00:26:53.396Z,4.77
2017-02-14T00:27:29.420Z,4.75
2017-02-14T00:27:56.598Z,4.74
2017-02-14T00:28:18.316Z,4.76
2017-02-14T00:28:44.808Z,4.76
2017-02-14T00:29:06.489Z,4.76
2017-02-14T00:29:37.744Z,4.76
2017-02-14T00:29:59.464Z,4.73
2017-02-14T00:30:21.273Z,4.79
2017-02-14T00:30:47.836Z,4.82
2017-02-14T00:31:09.539Z,4.80
2017-02-14T00:31:36.022Z,4.83
2017-02-14T00:31:57.849Z,4.83
2017-02-14T00:32:19.686Z,4.84
2017-02-14T00:32:55.721Z,4.74
2017-02-14T00:33:22.751Z,4.74
2017-02-14T00:33:44.455Z,4.72
2017-02-14T00:34:15.711Z,4.67
2017-02-14T00:34:37.423Z,4.68
2017-02-14T00:35:13.452Z,4.67
2017-02-14T00:35:40.497Z,4.70
2017-02-14T00:36:02.201Z,4.69
2017-02-14T00:36:24.015Z,4.67
2017-02-14T00:36:50.491Z,4.65
2017-02-14T00:37:12.201Z,4.65
2017-02-14T00:37:38.760Z,4.64
2017-02-14T00:38:00.467Z,4.65
2017-02-14T00:38:26.947Z,4.66
2017-02-14T00:38:48.656Z,4.69
2017-02-14T00:39:15.142Z,4.69
2017-02-14T00:39:36.844Z,4.67
2017-02-14T00:40:03.426Z,4.52
2017-02-14T00:40:25.224Z,4.49
2017-02-14T00:40:51.724Z,4.60
2017-02-14T00:41:13.524Z,4.56
2017-02-14T00:41:35.330Z,4.45
2017-02-14T00:41:57.046Z,4.49
2017-02-14T00:42:23.526Z,4.48
2017-02-14T00:42:45.287Z,4.46
2017-02-14T00:43:11.746Z,4.49
2017-02-14T00:43:33.545Z,4.51
2017-02-14T00:44:00.021Z,4.44
2017-02-14T00:44:21.721Z,4.42
2017-02-14T00:44:43.431Z,4.42
2017-02-14T00:45:05.243Z,4.44
2017-02-14T00:45:27.045Z,4.48
2017-02-14T00:45:53.554Z,4.53
2017-02-14T00:46:19.997Z,4.57
2017-02-14T00:46:41.705Z,4.53
2017-02-14T00:47:08.185Z,4.52
2017-02-14T00:47:29.900Z,4.49
2017-02-14T00:47:56.380Z,4.45
2017-02-14T00:48:18.083Z,4.43
2017-02-14T00:48:44.558Z,4.41
2017-02-14T00:49:06.262Z,4.43
2017-02-14T00:49:27.964Z,4.41
2017-02-14T00:49:49.773Z,4.37
2017-02-14T00:50:11.468Z,4.34
2017-02-14T00:50:37.952Z,4.32
2017-02-14T00:50:59.654Z,4.29
2017-02-14T00:51:21.359Z,4.29
2017-02-14T00:51:52.617Z,4.32
2017-02-14T00:52:14.313Z,4.34
2017-02-14T00:52:40.790Z,4.34
2017-02-14T00:53:02.517Z,4.37
2017-02-14T00:53:24.227Z,4.38
2017-02-14T00:53:50.700Z,4.38
2017-02-14T00:54:12.402Z,4.40
2017-02-14T00:54:34.107Z,4.35
2017-02-14T00:54:55.810Z,4.36
2017-02-14T00:55:17.513Z,4.35
2017-02-14T00:55:39.215Z,4.36
2017-02-14T00:56:00.930Z,4.37
2017-02-14T00:56:22.630Z,4.38
2017-02-14T00:56:44.347Z,4.37
2017-02-14T00:57:06.067Z,4.28
2017-02-14T00:57:27.756Z,4.27
2017-02-14T00:57:49.468Z,4.32
2017-02-14T00:58:11.214Z,4.34
2017-02-14T00:58:32.908Z,4.41
2017-02-14T00:58:54.626Z,4.38
2017-02-14T00:59:16.332Z,4.32
2017-02-14T00:59:38.642Z,4.23
2017-02-14T01:00:00.344Z,4.12
2017-02-14T01:00:24.686Z,4.08
2017-02-14T01:00:46.480Z,4.05
2017-02-14T01:01:08.197Z,3.99
2017-02-14T01:01:29.907Z,3.97
2017-02-14T01:01:51.628Z,4.05
2017-02-14T01:02:13.336Z,4.05
2017-02-14T01:02:39.823Z,3.98
2017-02-14T01:03:01.526Z,3.95
2017-02-14T01:03:28.009Z,3.94
2017-02-14T01:03:49.718Z,3.93
2017-02-14T01:04:20.976Z,3.96
2017-02-14T01:04:42.684Z,3.95
2017-02-14T01:05:04.399Z,3.95
2017-02-14T01:05:30.981Z,3.97
2017-02-14T01:05:52.673Z,3.99
2017-02-14T01:06:19.158Z,3.98
2017-02-14T01:06:40.866Z,3.91
2017-02-14T01:07:02.579Z,3.86
2017-02-14T01:07:29.058Z,3.85
2017-02-14T01:07:50.767Z,3.84
2017-02-14T01:08:12.466Z,3.84
2017-02-14T01:08:34.198Z,3.81
2017-02-14T01:08:55.900Z,3.86
2017-02-14T01:09:17.616Z,3.86
2017-02-14T01:09:44.093Z,3.85
2017-02-14T01:10:05.817Z,3.88
2017-02-14T01:10:27.625Z,3.94
2017-02-14T01:10:58.876Z,3.89
2017-02-14T01:11:20.595Z,3.93
2017-02-14T01:11:42.297Z,3.94
2017-02-14T01:12:04.102Z,3.93
2017-02-14T01:12:25.802Z,3.91
2017-02-14T01:12:47.501Z,3.90
2017-02-14T01:13:13.985Z,3.94
2017-02-14T01:13:35.709Z,3.95
2017-02-14T01:13:57.414Z,3.95
2017-02-14T01:14:23.887Z,3.98
2017-02-14T01:14:45.590Z,4.00
2017-02-14T01:15:07.395Z,4.00
2017-02-14T01:15:33.868Z,4.02
2017-02-14T01:15:55.574Z,3.98
2017-02-14T01:16:22.057Z,3.97
2017-02-14T01:16:43.762Z,3.90
2017-02-14T01:17:10.361Z,3.97
2017-02-14T01:17:32.073Z,3.99
2017-02-14T01:18:03.360Z,4.02
2017-02-14T01:18:25.061Z,4.01
2017-02-14T01:18:46.783Z,3.95
2017-02-14T01:19:08.488Z,3.96
2017-02-14T01:19:30.229Z,3.97
2017-02-14T01:19:51.936Z,3.97
2017-02-14T01:20:13.641Z,4.01
2017-02-14T01:20:35.347Z,4.02
2017-02-14T01:20:57.052Z,4.02
2017-02-14T01:21:28.405Z,4.02
2017-02-14T01:21:50.207Z,4.04
2017-02-14T01:22:11.916Z,3.99
2017-02-14T01:22:38.399Z,4.02
2017-02-14T01:23:00.204Z,4.02
2017-02-14T01:23:21.913Z,4.03
2017-02-14T01:23:43.621Z,4.04
2017-02-14T01:24:05.321Z,4.04
2017-02-14T01:24:36.578Z,4.04
2017-02-14T01:24:58.287Z,4.04
2017-02-14T01:25:19.990Z,4.01
2017-02-14T01:25:46.473Z,4.01
2017-02-14T01:26:08.187Z,3.99
2017-02-14T01:26:29.890Z,3.98
2017-02-14T01:26:51.699Z,3.95
2017-02-14T01:27:13.522Z,3.96
2017-02-14T01:27:40.015Z,3.93
2017-02-14T01:28:01.728Z,3.92
2017-02-14T01:28:28.207Z,3.89
2017-02-14T01:28:49.916Z,3.88
2017-02-14T01:29:16.387Z,3.87
2017-02-14T01:29:38.150Z,3.86
2017-02-14T01:30:04.632Z,3.86
2017-02-14T01:30:31.113Z,3.82
2017-02-14T01:30:52.917Z,3.84
2017-02-14T01:31:19.399Z,3.84
2017-02-14T01:31:41.106Z,3.88
2017-02-14T01:32:07.575Z,3.86
2017-02-14T01:32:29.308Z,3.88
2017-02-14T01:32:55.786Z,3.89
2017-02-14T01:33:17.498Z,3.92
2017-02-14T01:33:39.204Z,3.92
2017-02-14T01:34:00.915Z,3.88
2017-02-14T01:34:22.636Z,3.93
2017-02-14T01:35:29.939Z,3.91
2017-02-14T01:35:51.681Z,3.92
2017-02-14T01:36:13.383Z,3.95
2017-02-14T01:36:37.110Z,3.95
2017-02-14T01:36:58.822Z,3.91
2017-02-14T01:37:34.848Z,3.94
2017-02-14T01:38:02.036Z,3.87
2017-02-14T01:38:23.612Z,3.86
2017-02-14T01:38:59.638Z,3.88
2017-02-14T01:39:21.932Z,3.88
2017-02-14T01:39:43.645Z,3.88
2017-02-14T01:40:10.111Z,3.88
2017-02-14T01:40:31.820Z,3.83
2017-02-14T01:40:58.320Z,3.82
2017-02-14T01:41:20.022Z,3.80
2017-02-14T01:41:46.508Z,3.85
2017-02-14T01:42:08.203Z,3.83
2017-02-14T01:42:29.923Z,3.83
2017-02-14T01:42:56.409Z,3.84
2017-02-14T01:43:18.122Z,3.85
2017-02-14T01:43:44.605Z,3.81
2017-02-14T01:44:06.316Z,3.79
2017-02-14T01:44:28.019Z,3.73
2017-02-14T01:44:54.502Z,3.73
2017-02-14T01:45:16.214Z,3.73
2017-02-14T01:45:38.019Z,3.77
2017-02-14T01:46:09.290Z,3.78
2017-02-14T01:46:30.975Z,3.78
2017-02-14T01:46:52.681Z,3.77
2017-02-14T01:47:23.935Z,3.68
2017-02-14T01:47:45.642Z,3.65
2017-02-14T01:48:07.343Z,3.65
2017-02-14T01:48:33.833Z,3.60
2017-02-14T01:48:55.542Z,3.58
2017-02-14T01:49:22.022Z,3.61
2017-02-14T01:49:43.726Z,3.63
2017-02-14T01:50:12.754Z,3.71
2017-02-14T01:50:34.336Z,3.66
2017-02-14T01:51:00.848Z,3.68
2017-02-14T01:51:22.655Z,3.63
2017-02-14T01:51:49.132Z,3.72
2017-02-14T01:52:10.835Z,3.72
2017-02-14T01:52:37.308Z,3.75
2017-02-14T01:52:59.001Z,3.75
2017-02-14T01:53:25.491Z,3.74
2017-02-14T01:53:47.193Z,3.71
2017-02-14T01:54:08.912Z,3.63
2017-02-14T01:54:35.401Z,3.66
2017-02-14T01:54:57.120Z,3.72
2017-02-14T01:55:23.594Z,3.67
2017-02-14T01:55:45.305Z,3.67
2017-02-14T01:56:11.786Z,3.68
2017-02-14T01:56:33.491Z,3.75
2017-02-14T01:57:00.070Z,3.72
2017-02-14T01:57:21.797Z,3.70
2017-02-14T01:57:48.287Z,3.70
2017-02-14T01:58:09.981Z,3.71
2017-02-14T01:58:31.692Z,3.73
2017-02-14T01:58:53.407Z,3.73
2017-02-14T01:59:24.662Z,3.67
2017-02-14T01:59:51.150Z,3.79
2017-02-14T02:00:27.181Z,3.79
2017-02-14T02:00:49.513Z,3.78
2017-02-14T02:01:11.219Z,3.75
2017-02-14T02:01:32.922Z,3.72
2017-02-14T02:01:54.641Z,3.68
2017-02-14T02:02:16.342Z,3.71
2017-02-14T02:02:42.824Z,3.71
2017-02-14T02:03:09.305Z,3.67
2017-02-14T02:03:35.799Z,3.65
2017-02-14T02:03:57.603Z,3.68
2017-02-14T02:04:33.632Z,3.60
2017-02-14T02:04:55.881Z,3.58
2017-02-14T02:05:17.583Z,3.59
2017-02-14T02:05:39.297Z,3.61
2017-02-14T02:06:10.562Z,3.65
2017-02-14T02:06:32.268Z,3.63
2017-02-14T02:06:53.971Z,3.55
2017-02-14T02:07:15.680Z,3.53
2017-02-14T02:07:37.427Z,3.51
2017-02-14T02:07:59.136Z,3.51
2017-02-14T02:08:20.844Z,3.49
2017-02-14T02:08:42.659Z,3.50
2017-02-14T02:09:13.916Z,3.54
2017-02-14T02:09:35.625Z,3.54
2017-02-14T02:09:57.348Z,3.50
2017-02-14T02:10:28.603Z,3.44
2017-02-14T02:10:50.314Z,3.41
2017-02-14T02:11:12.233Z,3.42
2017-02-14T02:11:38.716Z,3.43
2017-02-14T02:12:00.413Z,3.46
2017-02-14T02:12:22.127Z,3.51
2017-02-14T02:12:48.612Z,3.47
2017-02-14T02:13:10.317Z,3.47
2017-02-14T02:13:32.129Z,3.50
2017-02-14T02:13:58.611Z,3.49
2017-02-14T02:14:20.329Z,3.50
2017-02-14T02:14:42.035Z,3.52
2017-02-14T02:15:13.286Z,3.54
2017-02-14T02:15:34.996Z,3.54
2017-02-14T02:15:56.696Z,3.53
2017-02-14T02:16:18.403Z,3.44
2017-02-14T02:16:40.103Z,3.40
2017-02-14T02:17:01.811Z,3.43
2017-02-14T02:17:28.288Z,3.45
2017-02-14T02:17:50.020Z,3.48
2017-02-14T02:18:11.724Z,3.52
2017-02-14T02:18:42.976Z,3.52
2017-02-14T02:19:04.670Z,3.50
2017-02-14T02:19:26.403Z,3.50
2017-02-14T02:19:57.660Z,3.54
2017-02-14T02:20:19.360Z,3.46
2017-02-14T02:20:45.835Z,3.42
2017-02-14T02:21:07.545Z,3.45
2017-02-14T02:21:29.253Z,3.45
2017-02-14T02:21:50.976Z,3.41
2017-02-14T02:22:12.691Z,3.41
2017-02-14T02:22:43.954Z,3.34
2017-02-14T02:23:05.728Z,3.29
2017-02-14T02:23:27.448Z,3.23
2017-02-14T02:23:53.938Z,3.20
2017-02-14T02:24:15.659Z,3.16
2017-02-14T02:24:37.369Z,3.17
2017-02-14T02:25:39.878Z,3.20
2017-02-14T02:26:01.590Z,3.22
2017-02-14T02:26:23.289Z,3.23
2017-02-14T02:26:59.318Z,3.20
2017-02-14T02:27:26.371Z,3.20
2017-02-14T02:27:48.077Z,3.23
2017-02-14T02:28:14.566Z,3.24
2017-02-14T02:28:36.280Z,3.26
2017-02-14T02:28:57.995Z,3.27
2017-02-14T02:29:19.733Z,3.28
2017-02-14T02:29:41.430Z,3.32
2017-02-14T02:30:03.165Z,3.35
2017-02-14T02:30:34.417Z,3.32
2017-02-14T02:30:56.245Z,3.29
2017-02-14T02:31:17.954Z,3.33
2017-02-14T02:31:39.667Z,3.35
2017-02-14T02:32:01.378Z,3.35
2017-02-14T02:32:23.079Z,3.41
2017-02-14T02:32:44.791Z,3.41
2017-02-14T02:33:06.500Z,3.42
2017-02-14T02:33:28.198Z,3.41
2017-02-14T02:33:49.917Z,3.45
2017-02-14T02:34:11.626Z,3.46
2017-02-14T02:34:33.325Z,3.44
2017-02-14T02:35:04.610Z,3.42
2017-02-14T02:35:26.320Z,3.45
2017-02-14T02:35:48.033Z,3.43
2017-02-14T02:36:12.590Z,3.38
2017-02-14T02:36:34.154Z,3.38
2017-02-14T02:37:00.642Z,3.40
2017-02-14T02:37:22.343Z,3.37
2017-02-14T02:38:29.626Z,3.29
2017-02-14T02:38:51.337Z,3.25
2017-02-14T02:39:17.831Z,3.22
2017-02-14T02:39:39.545Z,3.20
2017-02-14T02:40:46.825Z,3.19
2017-02-14T02:41:08.540Z,3.15
2017-02-14T02:41:35.014Z,3.12
2017-02-14T02:41:56.716Z,3.08
2017-02-14T02:42:18.428Z,3.06
2017-02-14T02:42:44.922Z,3.05
2017-02-14T02:43:06.731Z,3.03
2017-02-14T02:43:28.528Z,3.03
2017-02-14T02:44:31.040Z,2.96
2017-02-14T02:44:57.516Z,3.01
2017-02-14T02:45:19.261Z,3.03
2017-02-14T02:45:50.515Z,3.05
2017-02-14T02:46:12.223Z,3.10
2017-02-14T02:46:43.475Z,2.99
2017-02-14T02:47:05.168Z,2.93
2017-02-14T02:47:31.658Z,2.91
2017-02-14T02:47:53.356Z,2.87
2017-02-14T02:48:24.617Z,2.85
2017-02-14T02:48:46.309Z,2.87
2017-02-14T02:49:08.021Z,2.91
2017-02-14T02:49:29.728Z,2.93
2017-02-14T02:49:51.433Z,2.96
2017-02-14T02:50:17.930Z,3.02
2017-02-14T02:50:39.630Z,3.02
2017-02-14T02:51:01.334Z,2.99
2017-02-14T02:51:37.363Z,2.99
2017-02-14T02:52:04.394Z,2.89
2017-02-14T02:52:26.099Z,3.03
2017-02-14T02:52:47.807Z,2.92
2017-02-14T02:53:09.516Z,2.89
2017-02-14T02:53:31.220Z,3.01
2017-02-14T02:54:07.264Z,3.05
2017-02-14T02:54:34.333Z,3.02
2017-02-14T02:54:56.044Z,2.99
2017-02-14T02:55:17.762Z,2.98
2017-02-14T02:55:39.465Z,2.96
2017-02-14T02:56:01.189Z,2.87
2017-02-14T02:56:22.925Z,2.84
2017-02-14T02:56:44.646Z,2.80
2017-02-14T02:57:06.346Z,2.74
2017-02-14T02:57:28.054Z,2.79
2017-02-14T02:57:54.544Z,2.83
2017-02-14T02:58:16.314Z,2.80
2017-02-14T02:58:38.026Z,2.75
2017-02-14T02:58:59.734Z,2.77
2017-02-14T02:59:21.439Z,2.74
2017-02-14T02:59:43.149Z,2.74
2017-02-14T03:00:04.878Z,2.77
2017-02-14T03:00:26.579Z,2.78
2017-02-14T03:00:53.060Z,2.79
2017-02-14T03:01:14.767Z,2.79
2017-02-14T03:01:36.498Z,2.78
2017-02-14T03:01:58.407Z,2.79
2017-02-14T03:02:20.112Z,2.77
2017-02-14T03:02:51.380Z,2.81
2017-02-14T03:03:13.072Z,2.79
2017-02-14T03:03:34.784Z,2.79
2017-02-14T03:03:56.492Z,2.77
2017-02-14T03:04:18.203Z,2.79
2017-02-14T03:04:44.677Z,2.83
2017-02-14T03:05:06.378Z,2.86
2017-02-14T03:05:28.098Z,2.83
2017-02-14T03:05:54.577Z,2.82
2017-02-14T03:06:16.298Z,2.83
2017-02-14T03:06:38.035Z,2.82
2017-02-14T03:07:04.505Z,2.82
2017-02-14T03:07:26.207Z,2.87
2017-02-14T03:07:47.919Z,2.90
2017-02-14T03:08:19.177Z,2.89
2017-02-14T03:08:40.880Z,2.87
2017-02-14T03:09:02.582Z,2.86
2017-02-14T03:09:24.294Z,2.81
2017-02-14T03:09:46.000Z,2.81
2017-02-14T03:10:12.503Z,2.84
2017-02-14T03:10:34.215Z,2.86
2017-02-14T03:11:00.701Z,2.85
2017-02-14T03:11:22.408Z,2.88
2017-02-14T03:11:44.141Z,2.88
2017-02-14T03:12:05.856Z,2.86
2017-02-14T03:12:27.580Z,2.90
2017-02-14T03:12:54.061Z,2.88
2017-02-14T03:13:15.772Z,2.93
2017-02-14T03:13:37.484Z,2.91
2017-02-14T03:14:03.980Z,2.91
2017-02-14T03:14:25.685Z,2.90
2017-02-14T03:14:47.396Z,2.95
2017-02-14T03:15:09.104Z,2.96
2017-02-14T03:15:30.809Z,3.00
2017-02-14T03:16:02.060Z,2.93
2017-02-14T03:16:23.769Z,2.93
2017-02-14T03:16:45.484Z,2.92
2017-02-14T03:17:11.970Z,2.93
2017-02-14T03:17:33.676Z,2.82
2017-02-14T03:18:00.179Z,2.82
2017-02-14T03:18:21.887Z,2.85
2017-02-14T03:18:53.142Z,2.86
2017-02-14T03:19:14.866Z,2.88
2017-02-14T03:19:46.114Z,2.89
2017-02-14T03:20:07.821Z,2.93
2017-02-14T03:20:39.071Z,2.93
2017-02-14T03:21:00.778Z,2.94
2017-02-14T03:21:32.038Z,2.97
2017-02-14T03:21:53.774Z,2.98
2017-02-14T03:22:29.813Z,2.98
2017-02-14T03:22:56.873Z,2.96
2017-02-14T03:23:18.581Z,2.98
2017-02-14T03:23:40.293Z,3.02
2017-02-14T03:24:06.777Z,3.05
2017-02-14T03:24:28.488Z,3.06
2017-02-14T03:24:50.203Z,3.10
2017-02-14T03:25:11.916Z,3.10
2017-02-14T03:25:33.615Z,3.08
2017-02-14T03:26:00.102Z,3.10
2017-02-14T03:26:21.823Z,3.09
2017-02-14T03:26:48.299Z,3.09
2017-02-14T03:27:10.037Z,3.12
2017-02-14T03:27:31.759Z,3.12
2017-02-14T03:28:03.033Z,3.12
2017-02-14T03:28:24.746Z,3.14
2017-02-14T03:28:46.459Z,3.12
2017-02-14T03:29:12.936Z,3.13
2017-02-14T03:29:34.642Z,3.10
2017-02-14T03:29:56.352Z,3.13
2017-02-14T03:30:27.604Z,3.18
2017-02-14T03:30:49.305Z,3.17
2017-02-14T03:31:20.559Z,3.16
2017-02-14T03:31:42.280Z,3.21
2017-02-14T03:32:08.783Z,3.23
2017-02-14T03:32:30.489Z,3.25
2017-02-14T03:33:01.749Z,3.21
2017-02-14T03:33:23.455Z,3.16
2017-02-14T03:33:59.480Z,3.13
2017-02-14T03:34:26.544Z,3.09
2017-02-14T03:34:48.255Z,3.14
2017-02-14T03:35:24.286Z,3.18
2017-02-14T03:35:46.566Z,3.15
2017-02-14T03:36:08.280Z,3.15
2017-02-14T03:36:34.763Z,3.10
2017-02-14T03:36:56.501Z,3.11
2017-02-14T03:37:22.993Z,3.09
2017-02-14T03:37:44.702Z,3.07
2017-02-14T03:38:06.399Z,3.10
2017-02-14T03:38:32.878Z,3.13
2017-02-14T03:38:54.582Z,3.15
2017-02-14T03:39:16.292Z,3.13
2017-02-14T03:39:42.771Z,3.15
2017-02-14T03:40:04.482Z,3.15
2017-02-14T03:40:26.188Z,3.12
2017-02-14T03:40:47.900Z,3.11
2017-02-14T03:41:09.600Z,3.12
2017-02-14T03:41:31.314Z,3.09
2017-02-14T03:42:38.602Z,3.09
2017-02-14T03:43:00.307Z,3.08
2017-02-14T03:43:22.035Z,3.07
2017-02-14T03:43:43.749Z,3.12
2017-02-14T03:44:05.454Z,3.13
2017-02-14T03:44:27.170Z,3.14
2017-02-14T03:44:48.901Z,3.12
2017-02-14T03:45:10.696Z,3.08
2017-02-14T03:45:37.173Z,3.12
2017-02-14T03:45:58.879Z,3.12
2017-02-14T03:46:34.916Z,3.07
2017-02-14T03:47:01.970Z,3.13
2017-02-14T03:47:23.673Z,3.17
2017-02-14T03:47:45.378Z,3.18
2017-02-14T03:48:11.868Z,3.12
2017-02-14T03:48:33.574Z,3.09
2017-02-14T03:48:55.282Z,3.05
2017-02-14T03:49:21.774Z,3.07
2017-02-14T03:49:43.500Z,3.07
2017-02-14T03:50:09.976Z,3.09
2017-02-14T03:50:31.692Z,3.12
2017-02-14T03:50:58.172Z,3.11
2017-02-14T03:51:19.879Z,3.15
2017-02-14T03:51:41.570Z,3.20
2017-02-14T03:52:03.301Z,3.13
2017-02-14T03:52:25.013Z,3.21
2017-02-14T03:52:46.729Z,3.22
2017-02-14T03:53:22.767Z,3.16
2017-02-14T03:53:45.049Z,3.16
2017-02-14T03:54:06.744Z,3.14
2017-02-14T03:54:28.469Z,3.15
2017-02-14T03:54:54.962Z,3.08
2017-02-14T03:55:16.664Z,3.12
2017-02-14T03:55:38.367Z,3.10
2017-02-14T03:56:00.089Z,3.05
2017-02-14T03:56:21.811Z,3.04
2017-02-14T03:56:53.072Z,3.05
2017-02-14T03:57:14.815Z,3.01
2017-02-14T03:57:46.070Z,3.03
2017-02-14T03:58:10.393Z,3.03
2017-02-14T03:58:32.104Z,3.00
2017-02-14T03:58:53.803Z,2.98
2017-02-14T03:59:15.507Z,3.02
2017-02-14T03:59:41.984Z,3.06
2017-02-14T04:00:03.676Z,3.06
2017-02-14T04:00:25.396Z,3.06
2017-02-14T04:00:47.103Z,3.02
2017-02-14T04:01:08.809Z,3.03
2017-02-14T04:01:35.285Z,3.12
2017-02-14T04:01:56.990Z,3.08
2017-02-14T04:02:18.703Z,3.06
2017-02-14T04:03:25.983Z,3.06
2017-02-14T04:03:47.686Z,3.01
2017-02-14T04:04:14.166Z,2.95
2017-02-14T04:04:35.868Z,2.94
2017-02-14T04:05:02.345Z,3.02
2017-02-14T04:05:24.049Z,3.05
2017-02-14T04:05:45.752Z,3.03
2017-02-14T04:06:12.232Z,3.06
2017-02-14T04:06:33.935Z,3.01
2017-02-14T04:07:09.973Z,3.04
2017-02-14T04:07:32.249Z,3.01
2017-02-14T04:07:53.963Z,2.93
2017-02-14T04:08:20.438Z,2.95
2017-02-14T04:08:42.227Z,2.96
2017-02-14T04:09:08.714Z,2.98
2017-02-14T04:09:30.413Z,2.95
2017-02-14T04:09:56.896Z,2.93
2017-02-14T04:10:18.600Z,2.93
2017-02-14T04:10:45.110Z,2.95
2017-02-14T04:11:06.805Z,2.95
2017-02-14T04:11:28.506Z,2.96
2017-02-14T04:11:50.212Z,2.99
2017-02-14T04:12:11.917Z,2.98
2017-02-14T04:12:33.631Z,2.92
2017-02-14T04:12:55.358Z,2.93
2017-02-14T04:13:17.072Z,2.95
2017-02-14T04:13:38.774Z,3.01
2017-02-14T04:14:05.240Z,3.00
2017-02-14T04:14:26.950Z,2.98
2017-02-14T04:14:48.652Z,2.96
2017-02-14T04:15:10.403Z,2.95
2017-02-14T04:15:32.107Z,2.91
2017-02-14T04:16:34.630Z,2.89
2017-02-14T04:17:01.105Z,2.89
2017-02-14T04:17:22.934Z,2.87
2017-02-14T04:17:49.411Z,2.88
2017-02-14T04:18:11.110Z,2.94
2017-02-14T04:18:32.858Z,2.93
2017-02-14T04:18:54.677Z,2.90
2017-02-14T04:19:16.384Z,2.94
2017-02-14T04:19:47.638Z,2.90
2017-02-14T04:20:09.369Z,2.87
2017-02-14T04:21:16.655Z,2.88
2017-02-14T04:21:38.360Z,2.90
2017-02-14T04:22:31.322Z,2.97
2017-02-14T04:22:53.023Z,2.96
2017-02-14T04:23:14.745Z,2.94
2017-02-14T04:23:41.227Z,2.88
2017-02-14T04:24:07.704Z,2.86
2017-02-14T04:24:32.381Z,2.85
2017-02-14T04:24:56.669Z,2.82
2017-02-14T04:25:18.457Z,2.80
2017-02-14T04:25:44.966Z,2.81
2017-02-14T04:26:06.666Z,2.81
2017-02-14T04:26:28.377Z,2.76
2017-02-14T04:26:50.086Z,2.80
2017-02-14T04:27:11.801Z,2.78
2017-02-14T04:27:43.049Z,2.81
2017-02-14T04:28:04.862Z,2.79
2017-02-14T04:29:16.913Z,2.80
2017-02-14T04:29:38.618Z,2.80
2017-02-14T04:30:09.908Z,2.82
2017-02-14T04:30:31.608Z,2.80
2017-02-14T04:30:53.307Z,2.82
2017-02-14T04:31:15.026Z,2.86
2017-02-14T04:31:36.727Z,2.87
2017-02-14T04:31:58.431Z,2.83
2017-02-14T04:32:29.680Z,2.81
2017-02-14T04:32:51.375Z,2.82
2017-02-14T04:33:13.081Z,2.83
2017-02-14T04:33:34.784Z,2.87
2017-02-14T04:33:56.485Z,2.87
2017-02-14T04:34:18.192Z,2.87
2017-02-14T04:34:39.907Z,2.87
2017-02-14T04:35:01.615Z,2.82
2017-02-14T04:35:23.323Z,2.74
2017-02-14T04:35:45.032Z,2.76
2017-02-14T04:36:06.765Z,2.80
2017-02-14T04:36:28.499Z,2.83
2017-02-14T04:36:59.757Z,2.91
2017-02-14T04:37:21.469Z,2.92
2017-02-14T04:37:57.494Z,2.96
2017-02-14T04:38:24.558Z,2.99
2017-02-14T04:38:46.275Z,2.99
2017-02-14T04:39:12.758Z,2.96
2017-02-14T04:39:34.463Z,2.98
2017-02-14T04:39:56.173Z,2.99
2017-02-14T04:40:17.893Z,2.98
2017-02-14T04:40:39.619Z,3.01
2017-02-14T04:41:06.095Z,3.05
2017-02-14T04:41:27.805Z,3.04
2017-02-14T04:41:54.284Z,3.01
2017-02-14T04:42:15.994Z,3.00
2017-02-14T04:42:42.472Z,2.94
2017-02-14T04:43:04.185Z,2.92
2017-02-14T04:43:26.305Z,2.91
2017-02-14T04:43:48.006Z,2.92
2017-02-14T04:44:09.719Z,2.94
2017-02-14T04:44:31.420Z,2.92
2017-02-14T04:44:53.127Z,2.88
2017-02-14T04:45:19.715Z,2.81
2017-02-14T04:45:41.427Z,2.82
2017-02-14T04:46:07.910Z,2.75
2017-02-14T04:46:29.643Z,2.76
2017-02-14T04:46:51.357Z,2.67
2017-02-14T04:47:17.843Z,2.63
2017-02-14T04:47:39.548Z,2.66
2017-02-14T04:48:01.254Z,2.72
2017-02-14T04:48:27.724Z,2.74
2017-02-14T04:48:49.523Z,2.70
2017-02-14T04:49:11.225Z,2.66
2017-02-14T04:49:32.939Z,2.75
2017-02-14T04:49:54.649Z,2.84
2017-02-14T04:50:25.907Z,2.88
2017-02-14T04:50:47.606Z,2.89
2017-02-14T04:51:58.025Z,2.87
2017-02-14T04:52:19.596Z,2.78
2017-02-14T04:52:46.086Z,2.76
2017-02-14T04:53:07.798Z,2.73
2017-02-14T04:53:34.291Z,2.71
2017-02-14T04:53:55.993Z,2.69
2017-02-14T04:54:17.715Z,2.71
2017-02-14T04:54:39.437Z,2.66
2017-02-14T04:55:01.209Z,2.67
2017-02-14T04:55:22.922Z,2.69
2017-02-14T04:55:44.630Z,2.64
2017-02-14T04:56:06.336Z,2.66
2017-02-14T04:56:28.075Z,2.60
2017-02-14T04:57:35.353Z,2.60
2017-02-14T04:57:57.078Z,2.59
2017-02-14T04:58:23.554Z,2.56
2017-02-14T04:58:45.273Z,2.52
2017-02-14T04:59:07.002Z,2.52
2017-02-14T04:59:33.500Z,2.50
2017-02-14T04:59:55.205Z,2.46
2017-02-14T05:00:26.464Z,2.52
2017-02-14T05:00:48.163Z,2.51
2017-02-14T05:01:09.865Z,2.53
2017-02-14T05:01:36.352Z,2.50
2017-02-14T05:01:58.109Z,2.50
2017-02-14T05:02:34.140Z,2.49
2017-02-14T05:02:56.416Z,2.48
2017-02-14T05:03:18.147Z,2.49
2017-02-14T05:03:49.421Z,2.51
2017-02-14T05:04:11.155Z,2.47
2017-02-14T05:04:32.960Z,2.46
2017-02-14T05:05:04.221Z,2.48
2017-02-14T05:05:25.920Z,2.52
2017-02-14T05:05:52.406Z,2.49
2017-02-14T05:06:14.173Z,2.46
2017-02-14T05:06:35.879Z,2.47
2017-02-14T05:06:57.635Z,2.48
2017-02-14T05:07:19.328Z,2.45
2017-02-14T05:07:50.585Z,2.40
2017-02-14T05:08:12.297Z,2.33
2017-02-14T05:08:34.009Z,2.24
2017-02-14T05:09:00.512Z,2.23
2017-02-14T05:09:22.227Z,2.33
2017-02-14T05:09:53.478Z,2.47
2017-02-14T05:10:15.186Z,2.48
2017-02-14T05:10:46.449Z,2.46
2017-02-14T05:11:17.719Z,2.42
2017-02-14T05:11:39.417Z,2.50
2017-02-14T05:12:05.906Z,2.44
2017-02-14T05:12:27.612Z,2.45
2017-02-14T05:12:58.867Z,2.51
2017-02-14T05:13:20.573Z,2.54
2017-02-14T05:13:56.600Z,2.53
2017-02-14T05:14:23.635Z,2.50
2017-02-14T05:14:45.387Z,2.44
2017-02-14T05:15:21.388Z,2.44
2017-02-14T05:15:48.438Z,2.44
2017-02-14T05:16:10.142Z,2.37
2017-02-14T05:16:41.395Z,2.34
2017-02-14T05:17:03.111Z,2.31
2017-02-14T05:17:24.819Z,2.27
2017-02-14T05:17:51.296Z,2.29
2017-02-14T05:18:13.002Z,2.31
2017-02-14T05:18:34.707Z,2.29
2017-02-14T05:19:01.187Z,2.32
2017-02-14T05:19:22.892Z,2.33
2017-02-14T05:19:44.602Z,2.29
2017-02-14T05:20:06.311Z,2.23
2017-02-14T05:20:28.013Z,2.25
2017-02-14T05:20:54.489Z,2.25
2017-02-14T05:21:16.196Z,2.26
2017-02-14T05:21:42.677Z,2.26
2017-02-14T05:22:04.563Z,2.28
2017-02-14T05:22:26.279Z,2.25
2017-02-14T05:22:47.991Z,2.27
2017-02-14T05:23:09.686Z,2.27
2017-02-14T05:24:12.201Z,2.26
2017-02-14T05:24:33.917Z,2.22
2017-02-14T05:24:55.623Z,2.19
2017-02-14T05:25:17.327Z,2.22
2017-02-14T05:25:39.130Z,2.27
2017-02-14T05:26:00.838Z,2.24
2017-02-14T05:26:32.095Z,2.23
2017-02-14T05:26:53.801Z,2.26
2017-02-14T05:27:25.061Z,2.24
2017-02-14T05:27:46.764Z,2.30